Island Venture — WDG3765 — position and weather

sailwx.info

Track history (hours):
 
Tides and Currents Weather Stations Pressure Air Temp Water Temp Dewpoint Dewpoint Depression Visibility Wind Speed Wind Dir Waves Ship Positions

Island Venture

Owner: Island Tug and Barge, Seattle, WA. More information available from US FCC via Universal Licensing System and Coast Guard Vessel Documentation Center.

Last reported at 2017-Aug-12 11:13 UTC. Time now 2017-Aug-17 17:28 UTC.
Position N 47°34' W 122°21'.

Length 32 m.

MMSI: 367529420.

Date/timePositionNaut miles runAvg speedWind from/ knotsBaromVisibWave heightAir tempDewpointWater temp
2017-Aug-12 11:13N 47°34' W 122°21'0 0.1
2017-Aug-12 11:00N 47°34' W 122°21'1 1.0
2017-Aug-12 10:30N 47°34' W 122°21'0 0.1
2017-Aug-12 10:00N 47°34' W 122°21'2 3.5
2017-Aug-12 09:31N 47°36' W 122°22'3 5.3
2017-Aug-12 09:00N 47°35' W 122°26'4 7.2
2017-Aug-12 08:30N 47°32' W 122°28'4 8.0
2017-Aug-12 08:00N 47°28' W 122°31'4 7.7
2017-Aug-12 07:30N 47°24' W 122°32'4 7.6
2017-Aug-12 07:00N 47°21' W 122°33'4 9.0
2017-Aug-12 06:30N 47°16' W 122°33'5 8.4
2017-Aug-12 05:58N 47°12' W 122°36'4 1.4
2017-Aug-12 02:51N 47°08' W 122°39'0 0.0
2017-Aug-12 02:29N 47°08' W 122°39'0 0.0
2017-Aug-12 02:00N 47°08' W 122°39'0 0.0
2017-Aug-12 01:30N 47°08' W 122°39'0 0.0
2017-Aug-12 00:58N 47°08' W 122°39'1 0.3
2017-Aug-11 23:13N 47°09' W 122°38'0 0.0
2017-Aug-11 22:42N 47°09' W 122°38'0 0.0
2017-Aug-11 22:30N 47°09' W 122°38'0 0.0
2017-Aug-11 22:00N 47°09' W 122°38'0 0.0
2017-Aug-11 21:30N 47°09' W 122°38'0 0.0
2017-Aug-11 21:00N 47°09' W 122°38'0 0.0
2017-Aug-11 20:31N 47°09' W 122°38'0 0.0
2017-Aug-11 20:00N 47°09' W 122°38'0 0.0
2017-Aug-11 19:31N 47°09' W 122°38'2 2.2
2017-Aug-11 18:47N 47°10' W 122°38'3 7.1
2017-Aug-11 18:20N 47°13' W 122°35'2 5.8
2017-Aug-11 17:59N 47°15' W 122°34'2 4.1
2017-Aug-11 17:30N 47°16' W 122°33'2 4.2
2017-Aug-11 17:00N 47°19' W 122°33'3 6.8
2017-Aug-11 16:30N 47°22' W 122°32'3 6.9
2017-Aug-11 16:00N 47°25' W 122°32'4 7.3
2017-Aug-11 15:31N 47°29' W 122°30'1 1.1
2017-Aug-11 15:00N 47°29' W 122°30'3 5.9
2017-Aug-11 14:30N 47°32' W 122°28'5 5.1
2017-Aug-11 13:31N 47°34' W 122°21'0 0.2
2017-Aug-11 13:00N 47°34' W 122°21'1 1.4
2017-Aug-11 12:30N 47°34' W 122°21'1 2.1
2017-Aug-11 12:00N 47°35' W 122°22'2 3.6
2017-Aug-11 11:30N 47°36' W 122°23'2 5.0
2017-Aug-11 11:00N 47°34' W 122°26'3 5.1
2017-Aug-11 10:30N 47°32' W 122°27'3 5.9
2017-Aug-11 10:01N 47°30' W 122°30'3 6.4
2017-Aug-11 09:31N 47°27' W 122°32'3 6.3
2017-Aug-11 08:59N 47°23' W 122°32'4 7.1
2017-Aug-11 08:30N 47°20' W 122°33'4 7.7
2017-Aug-11 08:00N 47°16' W 122°33'4 7.7
2017-Aug-11 07:31N 47°13' W 122°36'3 6.0
2017-Aug-11 07:00N 47°11' W 122°39'11 0.6
2017-Aug-10 13:21N 47°12' W 122°56'15 4.7
2017-Aug-10 10:05N 47°15' W 122°34'1 7.5
2017-Aug-10 10:00N 47°16' W 122°33'3 6.9
2017-Aug-10 09:30N 47°19' W 122°33'3 6.0
2017-Aug-10 09:00N 47°22' W 122°32'2 4.9
2017-Aug-10 08:30N 47°24' W 122°32'1 2.7
2017-Aug-10 08:01N 47°23' W 122°32'4 7.6
2017-Aug-10 07:31N 47°19' W 122°33'4 8.2
2017-Aug-10 07:01N 47°15' W 122°34'4 7.7
2017-Aug-10 06:30N 47°12' W 122°37'4 0.1
2017-Aug-08 23:08N 47°16' W 122°33'212.8
2017-Aug-08 23:00N 47°17' W 122°33'4 8.9
2017-Aug-08 22:31N 47°22' W 122°32'4 7.1
2017-Aug-08 21:59N 47°25' W 122°32'3 7.2
2017-Aug-08 21:30N 47°29' W 122°30'4 7.4
2017-Aug-08 21:01N 47°32' W 122°28'4 8.0
2017-Aug-08 20:30N 47°35' W 122°25'2 4.7
2017-Aug-08 20:01N 47°34' W 122°21'0 1.0
2017-Aug-08 19:30N 47°34' W 122°21'0 0.9
2017-Aug-08 19:01N 47°34' W 122°21'1 1.6
2017-Aug-08 18:30N 47°34' W 122°21'0 0.0
2017-Aug-08 18:00N 47°34' W 122°21'0 0.0
2017-Aug-08 17:30N 47°34' W 122°21'0 0.2
2017-Aug-08 17:00N 47°34' W 122°21'0 0.2
2017-Aug-08 16:31N 47°34' W 122°22'1 1.5
2017-Aug-08 16:00N 47°35' W 122°22'2 3.1
2017-Aug-08 15:30N 47°34' W 122°21'1 1.6
2017-Aug-08 15:00N 47°34' W 122°21'2 4.2
2017-Aug-08 14:30N 47°36' W 122°24'3 6.0
2017-Aug-08 14:00N 47°34' W 122°27'3 6.3
2017-Aug-08 13:31N 47°31' W 122°29'3 6.3
2017-Aug-08 13:00N 47°28' W 122°31'3 6.1
2017-Aug-08 12:30N 47°25' W 122°32'3 5.9
2017-Aug-08 12:00N 47°22' W 122°32'3 5.7
2017-Aug-08 11:31N 47°19' W 122°33'2 4.6
2017-Aug-08 10:59N 47°17' W 122°32'2 3.7
2017-Aug-08 10:30N 47°16' W 122°34'2 3.7
2017-Aug-08 09:59N 47°14' W 122°34'3 5.1
2017-Aug-08 09:29N 47°12' W 122°36'3 0.7
2017-Aug-08 04:16N 47°09' W 122°38'0 0.2
2017-Aug-08 04:00N 47°09' W 122°38'0 0.0
2017-Aug-08 00:09N 47°09' W 122°38'1 1.2
2017-Aug-07 23:41N 47°08' W 122°39'0 0.0
2017-Aug-07 23:27N 47°08' W 122°39'9 6.9
2017-Aug-07 22:09N 47°16' W 122°33'212.6
2017-Aug-07 22:00N 47°18' W 122°33'3 6.2
2017-Aug-07 21:30N 47°18' W 122°29'3 1.2
2017-Aug-07 18:51N 47°17' W 122°25'0 0.2
2017-Aug-07 18:21N 47°17' W 122°25'2 6.7
2017-Aug-07 18:01N 47°18' W 122°27'4 7.2
2017-Aug-07 17:30N 47°20' W 122°32'3 5.7
2017-Aug-07 17:00N 47°17' W 122°33'5 8.6
2017-Aug-07 16:29N 47°13' W 122°35'3 6.4
2017-Aug-07 16:00N 47°10' W 122°38'2 0.8
2017-Aug-07 13:13N 47°08' W 122°39'8 6.1
2017-Aug-07 11:51N 47°16' W 122°33'3 8.6
2017-Aug-07 11:30N 47°19' W 122°33'3 6.7
2017-Aug-07 11:00N 47°18' W 122°28'3 6.6
2017-Aug-07 10:30N 47°16' W 122°24'2 3.4
2017-Aug-07 09:57N 47°18' W 122°26'0 1.0
2017-Aug-07 09:30N 47°18' W 122°26'3 5.5
2017-Aug-07 09:00N 47°20' W 122°27'3 7.0
2017-Aug-07 08:30N 47°22' W 122°23'3 5.8
2017-Aug-07 08:00N 47°25' W 122°24'3 6.8
2017-Aug-07 07:31N 47°29' W 122°23'4 7.2
2017-Aug-07 07:01N 47°32' W 122°25'3 6.0
2017-Aug-07 06:30N 47°35' W 122°25'2 4.5
2017-Aug-07 06:01N 47°35' W 122°22'1 2.5
2017-Aug-07 05:30N 47°34' W 122°21'1 1.9
2017-Aug-07 05:00N 47°33' W 122°20'1 2.2
2017-Aug-07 04:30N 47°34' W 122°21'0 0.1
2017-Aug-07 04:00N 47°34' W 122°21'1 1.2
2017-Aug-07 03:30N 47°34' W 122°21'0 0.0
2017-Aug-07 03:01N 47°34' W 122°21'0 0.0
2017-Aug-07 02:30N 47°34' W 122°21'1 0.0
2017-Aug-05 19:54N 47°35' W 122°21'1 0.1
2017-Aug-05 05:06N 47°34' W 122°21'0 0.0
2017-Aug-05 05:00N 47°34' W 122°21'1 2.2
2017-Aug-05 04:30N 47°35' W 122°21'1 1.1
2017-Aug-05 04:00N 47°35' W 122°21'1 2.4
2017-Aug-05 03:30N 47°37' W 122°21'0 0.1
2017-Aug-05 03:00N 47°37' W 122°21'0 0.0
2017-Aug-05 02:30N 47°37' W 122°21'2 4.9
2017-Aug-05 02:00N 47°34' W 122°21'0 0.8
2017-Aug-05 01:30N 47°34' W 122°21'1 1.3
2017-Aug-05 01:00N 47°34' W 122°21'0 0.0
2017-Aug-05 00:30N 47°34' W 122°21'0 0.0
2017-Aug-05 00:00N 47°34' W 122°21'0 0.0
2017-Aug-04 23:30N 47°34' W 122°21'0 0.0
2017-Aug-04 23:00N 47°34' W 122°21'0 0.0
2017-Aug-04 22:30N 47°34' W 122°21'0 0.0
2017-Aug-04 22:00N 47°34' W 122°21'0 0.0
2017-Aug-04 21:30N 47°34' W 122°21'0 0.0
2017-Aug-04 21:00N 47°34' W 122°21'0 0.0
2017-Aug-04 20:30N 47°34' W 122°21'0 0.0
2017-Aug-04 20:00N 47°34' W 122°21'0 0.0
2017-Aug-04 19:29N 47°34' W 122°21'0 0.4
2017-Aug-04 18:58N 47°35' W 122°22'1 1.9
2017-Aug-04 18:30N 47°35' W 122°22'2 4.3
2017-Aug-04 17:58N 47°33' W 122°21'1 3.3
2017-Aug-04 17:30N 47°32' W 122°19'0 0.8
2017-Aug-04 17:00N 47°32' W 122°20'2 3.7
2017-Aug-04 16:30N 47°34' W 122°21'0 0.2
2017-Aug-04 15:59N 47°34' W 122°21'0 0.0
2017-Aug-04 15:30N 47°34' W 122°21'0 0.0
2017-Aug-04 15:00N 47°34' W 122°21'0 0.0
2017-Aug-04 14:00N 47°34' W 122°21'0 0.0
2017-Aug-04 13:29N 47°34' W 122°21'1 1.2
2017-Aug-04 13:00N 47°34' W 122°21'0 0.0
2017-Aug-04 12:30N 47°34' W 122°21'0 0.0
2017-Aug-04 12:00N 47°34' W 122°21'0 0.0
2017-Aug-04 11:30N 47°34' W 122°21'0 0.0
2017-Aug-04 11:00N 47°34' W 122°21'0 0.0
2017-Aug-04 10:30N 47°34' W 122°21'0 0.0
2017-Aug-04 10:00N 47°34' W 122°21'0 0.0
2017-Aug-04 09:29N 47°34' W 122°21'0 1.0
2017-Aug-04 09:00N 47°34' W 122°21'0 0.2
2017-Aug-04 08:30N 47°34' W 122°21'0 0.5
2017-Aug-04 08:00N 47°34' W 122°21'2 4.1
2017-Aug-04 07:30N 47°36' W 122°23'3 5.7
2017-Aug-04 07:00N 47°34' W 122°26'3 6.0
2017-Aug-04 06:30N 47°32' W 122°28'3 6.3
2017-Aug-04 06:01N 47°29' W 122°30'3 6.1
2017-Aug-04 05:30N 47°26' W 122°31'3 6.2
2017-Aug-04 05:00N 47°23' W 122°32'3 6.3
2017-Aug-04 04:30N 47°20' W 122°33'3 6.8
2017-Aug-04 04:00N 47°16' W 122°33'4 7.3
2017-Aug-04 03:30N 47°13' W 122°35'3 6.1
2017-Aug-04 03:00N 47°11' W 122°39'5 5.7
2017-Aug-04 02:04N 47°09' W 122°46'7 0.4
2017-Aug-03 09:31N 47°12' W 122°56'0 9.6
2017-Aug-03 09:30N 47°12' W 122°56'14 3.0
2017-Aug-03 04:52N 47°13' W 122°35'3 7.3
2017-Aug-03 04:30N 47°16' W 122°33'3 6.2
2017-Aug-03 03:59N 47°19' W 122°33'3 7.3
2017-Aug-03 03:30N 47°22' W 122°32'4 7.1
2017-Aug-03 03:00N 47°26' W 122°31'3 7.0
2017-Aug-03 02:30N 47°29' W 122°30'3 6.7
2017-Aug-03 02:00N 47°32' W 122°28'4 7.5
2017-Aug-03 01:30N 47°35' W 122°25'2 4.9
2017-Aug-03 01:00N 47°34' W 122°21'1 1.5
2017-Aug-03 00:30N 47°34' W 122°21'0 0.9
2017-Aug-03 00:00N 47°34' W 122°21'2 3.3
2017-Aug-02 23:30N 47°36' W 122°21'1 1.7
2017-Aug-02 23:00N 47°37' W 122°21'1 1.5
2017-Aug-02 22:30N 47°37' W 122°22'1 2.0
2017-Aug-02 22:00N 47°36' W 122°21'0 0.3
2017-Aug-02 21:30N 47°36' W 122°21'1 2.3
2017-Aug-02 21:00N 47°34' W 122°21'0 0.8
2017-Aug-02 20:30N 47°35' W 122°22'1 1.1
2017-Aug-02 20:00N 47°35' W 122°22'  
Track history (hours):
 
Tides and Currents Weather Stations Pressure Air Temp Water Temp Dewpoint Dewpoint Depression Visibility Wind Speed Wind Dir Waves Ship Positions

Island Venture

Owner: Island Tug and Barge, Seattle, WA. More information available from US FCC via Universal Licensing System and Coast Guard Vessel Documentation Center.

Last reported at 2017-Aug-12 11:13 UTC. Time now 2017-Aug-17 17:28 UTC.
Position N 47°34' W 122°21'.

Length 32 m.

MMSI: 367529420.

Date/timePositionNaut miles runAvg speedWind from/ knotsBaromVisibWave heightAir tempDewpointWater temp
2017-Aug-12 11:13N 47°34' W 122°21'0 0.1
2017-Aug-12 11:00N 47°34' W 122°21'1 1.0
2017-Aug-12 10:30N 47°34' W 122°21'0 0.1
2017-Aug-12 10:00N 47°34' W 122°21'2 3.5
2017-Aug-12 09:31N 47°36' W 122°22'3 5.3
2017-Aug-12 09:00N 47°35' W 122°26'4 7.2
2017-Aug-12 08:30N 47°32' W 122°28'4 8.0
2017-Aug-12 08:00N 47°28' W 122°31'4 7.7
2017-Aug-12 07:30N 47°24' W 122°32'4 7.6
2017-Aug-12 07:00N 47°21' W 122°33'4 9.0
2017-Aug-12 06:30N 47°16' W 122°33'5 8.4
2017-Aug-12 05:58N 47°12' W 122°36'4 1.4
2017-Aug-12 02:51N 47°08' W 122°39'0 0.0
2017-Aug-12 02:29N 47°08' W 122°39'0 0.0
2017-Aug-12 02:00N 47°08' W 122°39'0 0.0
2017-Aug-12 01:30N 47°08' W 122°39'0 0.0
2017-Aug-12 00:58N 47°08' W 122°39'1 0.3
2017-Aug-11 23:13N 47°09' W 122°38'0 0.0
2017-Aug-11 22:42N 47°09' W 122°38'0 0.0
2017-Aug-11 22:30N 47°09' W 122°38'0 0.0
2017-Aug-11 22:00N 47°09' W 122°38'0 0.0
2017-Aug-11 21:30N 47°09' W 122°38'0 0.0
2017-Aug-11 21:00N 47°09' W 122°38'0 0.0
2017-Aug-11 20:31N 47°09' W 122°38'0 0.0
2017-Aug-11 20:00N 47°09' W 122°38'0 0.0
2017-Aug-11 19:31N 47°09' W 122°38'2 2.2
2017-Aug-11 18:47N 47°10' W 122°38'3 7.1
2017-Aug-11 18:20N 47°13' W 122°35'2 5.8
2017-Aug-11 17:59N 47°15' W 122°34'2 4.1
2017-Aug-11 17:30N 47°16' W 122°33'2 4.2
2017-Aug-11 17:00N 47°19' W 122°33'3 6.8
2017-Aug-11 16:30N 47°22' W 122°32'3 6.9
2017-Aug-11 16:00N 47°25' W 122°32'4 7.3
2017-Aug-11 15:31N 47°29' W 122°30'1 1.1
2017-Aug-11 15:00N 47°29' W 122°30'3 5.9
2017-Aug-11 14:30N 47°32' W 122°28'5 5.1
2017-Aug-11 13:31N 47°34' W 122°21'0 0.2
2017-Aug-11 13:00N 47°34' W 122°21'1 1.4
2017-Aug-11 12:30N 47°34' W 122°21'1 2.1
2017-Aug-11 12:00N 47°35' W 122°22'2 3.6
2017-Aug-11 11:30N 47°36' W 122°23'2 5.0
2017-Aug-11 11:00N 47°34' W 122°26'3 5.1
2017-Aug-11 10:30N 47°32' W 122°27'3 5.9
2017-Aug-11 10:01N 47°30' W 122°30'3 6.4
2017-Aug-11 09:31N 47°27' W 122°32'3 6.3
2017-Aug-11 08:59N 47°23' W 122°32'4 7.1
2017-Aug-11 08:30N 47°20' W 122°33'4 7.7
2017-Aug-11 08:00N 47°16' W 122°33'4 7.7
2017-Aug-11 07:31N 47°13' W 122°36'3 6.0
2017-Aug-11 07:00N 47°11' W 122°39'11 0.6
2017-Aug-10 13:21N 47°12' W 122°56'15 4.7
2017-Aug-10 10:05N 47°15' W 122°34'1 7.5
2017-Aug-10 10:00N 47°16' W 122°33'3 6.9
2017-Aug-10 09:30N 47°19' W 122°33'3 6.0
2017-Aug-10 09:00N 47°22' W 122°32'2 4.9
2017-Aug-10 08:30N 47°24' W 122°32'1 2.7
2017-Aug-10 08:01N 47°23' W 122°32'4 7.6
2017-Aug-10 07:31N 47°19' W 122°33'4 8.2
2017-Aug-10 07:01N 47°15' W 122°34'4 7.7
2017-Aug-10 06:30N 47°12' W 122°37'4 0.1
2017-Aug-08 23:08N 47°16' W 122°33'212.8
2017-Aug-08 23:00N 47°17' W 122°33'4 8.9
2017-Aug-08 22:31N 47°22' W 122°32'4 7.1
2017-Aug-08 21:59N 47°25' W 122°32'3 7.2
2017-Aug-08 21:30N 47°29' W 122°30'4 7.4
2017-Aug-08 21:01N 47°32' W 122°28'4 8.0
2017-Aug-08 20:30N 47°35' W 122°25'2 4.7
2017-Aug-08 20:01N 47°34' W 122°21'0 1.0
2017-Aug-08 19:30N 47°34' W 122°21'0 0.9
2017-Aug-08 19:01N 47°34' W 122°21'1 1.6
2017-Aug-08 18:30N 47°34' W 122°21'0 0.0
2017-Aug-08 18:00N 47°34' W 122°21'0 0.0
2017-Aug-08 17:30N 47°34' W 122°21'0 0.2
2017-Aug-08 17:00N 47°34' W 122°21'0 0.2
2017-Aug-08 16:31N 47°34' W 122°22'1 1.5
2017-Aug-08 16:00N 47°35' W 122°22'2 3.1
2017-Aug-08 15:30N 47°34' W 122°21'1 1.6
2017-Aug-08 15:00N 47°34' W 122°21'2 4.2
2017-Aug-08 14:30N 47°36' W 122°24'3 6.0
2017-Aug-08 14:00N 47°34' W 122°27'3 6.3
2017-Aug-08 13:31N 47°31' W 122°29'3 6.3
2017-Aug-08 13:00N 47°28' W 122°31'3 6.1
2017-Aug-08 12:30N 47°25' W 122°32'3 5.9
2017-Aug-08 12:00N 47°22' W 122°32'3 5.7
2017-Aug-08 11:31N 47°19' W 122°33'2 4.6
2017-Aug-08 10:59N 47°17' W 122°32'2 3.7
2017-Aug-08 10:30N 47°16' W 122°34'2 3.7
2017-Aug-08 09:59N 47°14' W 122°34'3 5.1
2017-Aug-08 09:29N 47°12' W 122°36'3 0.7
2017-Aug-08 04:16N 47°09' W 122°38'0 0.2
2017-Aug-08 04:00N 47°09' W 122°38'0 0.0
2017-Aug-08 00:09N 47°09' W 122°38'1 1.2
2017-Aug-07 23:41N 47°08' W 122°39'0 0.0
2017-Aug-07 23:27N 47°08' W 122°39'9 6.9
2017-Aug-07 22:09N 47°16' W 122°33'212.6
2017-Aug-07 22:00N 47°18' W 122°33'3 6.2
2017-Aug-07 21:30N 47°18' W 122°29'3 1.2
2017-Aug-07 18:51N 47°17' W 122°25'0 0.2
2017-Aug-07 18:21N 47°17' W 122°25'2 6.7
2017-Aug-07 18:01N 47°18' W 122°27'4 7.2
2017-Aug-07 17:30N 47°20' W 122°32'3 5.7
2017-Aug-07 17:00N 47°17' W 122°33'5 8.6
2017-Aug-07 16:29N 47°13' W 122°35'3 6.4
2017-Aug-07 16:00N 47°10' W 122°38'2 0.8
2017-Aug-07 13:13N 47°08' W 122°39'8 6.1
2017-Aug-07 11:51N 47°16' W 122°33'3 8.6
2017-Aug-07 11:30N 47°19' W 122°33'3 6.7
2017-Aug-07 11:00N 47°18' W 122°28'3 6.6
2017-Aug-07 10:30N 47°16' W 122°24'2 3.4
2017-Aug-07 09:57N 47°18' W 122°26'0 1.0
2017-Aug-07 09:30N 47°18' W 122°26'3 5.5
2017-Aug-07 09:00N 47°20' W 122°27'3 7.0
2017-Aug-07 08:30N 47°22' W 122°23'3 5.8
2017-Aug-07 08:00N 47°25' W 122°24'3 6.8
2017-Aug-07 07:31N 47°29' W 122°23'4 7.2
2017-Aug-07 07:01N 47°32' W 122°25'3 6.0
2017-Aug-07 06:30N 47°35' W 122°25'2 4.5
2017-Aug-07 06:01N 47°35' W 122°22'1 2.5
2017-Aug-07 05:30N 47°34' W 122°21'1 1.9
2017-Aug-07 05:00N 47°33' W 122°20'1 2.2
2017-Aug-07 04:30N 47°34' W 122°21'0 0.1
2017-Aug-07 04:00N 47°34' W 122°21'1 1.2
2017-Aug-07 03:30N 47°34' W 122°21'0 0.0
2017-Aug-07 03:01N 47°34' W 122°21'0 0.0
2017-Aug-07 02:30N 47°34' W 122°21'1 0.0
2017-Aug-05 19:54N 47°35' W 122°21'1 0.1
2017-Aug-05 05:06N 47°34' W 122°21'0 0.0
2017-Aug-05 05:00N 47°34' W 122°21'1 2.2
2017-Aug-05 04:30N 47°35' W 122°21'1 1.1
2017-Aug-05 04:00N 47°35' W 122°21'1 2.4
2017-Aug-05 03:30N 47°37' W 122°21'0 0.1
2017-Aug-05 03:00N 47°37' W 122°21'0 0.0
2017-Aug-05 02:30N 47°37' W 122°21'2 4.9
2017-Aug-05 02:00N 47°34' W 122°21'0 0.8
2017-Aug-05 01:30N 47°34' W 122°21'1 1.3
2017-Aug-05 01:00N 47°34' W 122°21'0 0.0
2017-Aug-05 00:30N 47°34' W 122°21'0 0.0
2017-Aug-05 00:00N 47°34' W 122°21'0 0.0
2017-Aug-04 23:30N 47°34' W 122°21'0 0.0
2017-Aug-04 23:00N 47°34' W 122°21'0 0.0
2017-Aug-04 22:30N 47°34' W 122°21'0 0.0
2017-Aug-04 22:00N 47°34' W 122°21'0 0.0
2017-Aug-04 21:30N 47°34' W 122°21'0 0.0
2017-Aug-04 21:00N 47°34' W 122°21'0 0.0
2017-Aug-04 20:30N 47°34' W 122°21'0 0.0
2017-Aug-04 20:00N 47°34' W 122°21'0 0.0
2017-Aug-04 19:29N 47°34' W 122°21'0 0.4
2017-Aug-04 18:58N 47°35' W 122°22'1 1.9
2017-Aug-04 18:30N 47°35' W 122°22'2 4.3
2017-Aug-04 17:58N 47°33' W 122°21'1 3.3
2017-Aug-04 17:30N 47°32' W 122°19'0 0.8
2017-Aug-04 17:00N 47°32' W 122°20'2 3.7
2017-Aug-04 16:30N 47°34' W 122°21'0 0.2
2017-Aug-04 15:59N 47°34' W 122°21'0 0.0
2017-Aug-04 15:30N 47°34' W 122°21'0 0.0
2017-Aug-04 15:00N 47°34' W 122°21'0 0.0
2017-Aug-04 14:00N 47°34' W 122°21'0 0.0
2017-Aug-04 13:29N 47°34' W 122°21'1 1.2
2017-Aug-04 13:00N 47°34' W 122°21'0 0.0
2017-Aug-04 12:30N 47°34' W 122°21'0 0.0
2017-Aug-04 12:00N 47°34' W 122°21'0 0.0
2017-Aug-04 11:30N 47°34' W 122°21'0 0.0
2017-Aug-04 11:00N 47°34' W 122°21'0 0.0
2017-Aug-04 10:30N 47°34' W 122°21'0 0.0
2017-Aug-04 10:00N 47°34' W 122°21'0 0.0
2017-Aug-04 09:29N 47°34' W 122°21'0 1.0
2017-Aug-04 09:00N 47°34' W 122°21'0 0.2
2017-Aug-04 08:30N 47°34' W 122°21'0 0.5
2017-Aug-04 08:00N 47°34' W 122°21'2 4.1
2017-Aug-04 07:30N 47°36' W 122°23'3 5.7
2017-Aug-04 07:00N 47°34' W 122°26'3 6.0
2017-Aug-04 06:30N 47°32' W 122°28'3 6.3
2017-Aug-04 06:01N 47°29' W 122°30'3 6.1
2017-Aug-04 05:30N 47°26' W 122°31'3 6.2
2017-Aug-04 05:00N 47°23' W 122°32'3 6.3
2017-Aug-04 04:30N 47°20' W 122°33'3 6.8
2017-Aug-04 04:00N 47°16' W 122°33'4 7.3
2017-Aug-04 03:30N 47°13' W 122°35'3 6.1
2017-Aug-04 03:00N 47°11' W 122°39'5 5.7
2017-Aug-04 02:04N 47°09' W 122°46'7 0.4
2017-Aug-03 09:31N 47°12' W 122°56'0 9.6
2017-Aug-03 09:30N 47°12' W 122°56'14 3.0
2017-Aug-03 04:52N 47°13' W 122°35'3 7.3
2017-Aug-03 04:30N 47°16' W 122°33'3 6.2
2017-Aug-03 03:59N 47°19' W 122°33'3 7.3
2017-Aug-03 03:30N 47°22' W 122°32'4 7.1
2017-Aug-03 03:00N 47°26' W 122°31'3 7.0
2017-Aug-03 02:30N 47°29' W 122°30'3 6.7
2017-Aug-03 02:00N 47°32' W 122°28'4 7.5
2017-Aug-03 01:30N 47°35' W 122°25'2 4.9
2017-Aug-03 01:00N 47°34' W 122°21'1 1.5
2017-Aug-03 00:30N 47°34' W 122°21'0 0.9
2017-Aug-03 00:00N 47°34' W 122°21'2 3.3
2017-Aug-02 23:30N 47°36' W 122°21'1 1.7
2017-Aug-02 23:00N 47°37' W 122°21'1 1.5
2017-Aug-02 22:30N 47°37' W 122°22'1 2.0
2017-Aug-02 22:00N 47°36' W 122°21'0 0.3
2017-Aug-02 21:30N 47°36' W 122°21'1 2.3
2017-Aug-02 21:00N 47°34' W 122°21'0 0.8
2017-Aug-02 20:30N 47°35' W 122°22'1 1.1
2017-Aug-02 20:00N 47°35' W 122°22'  

Dump ship's entire track history